sensor_id;sensor_type;location;lat;lon;timestamp;temperature;humidity
54178;DHT22;40085;53.004;6.770;2022-10-19T00:03:37;10.30;99.90
54178;DHT22;40085;53.004;6.770;2022-10-19T00:06:27;10.30;99.90
54178;DHT22;40085;53.004;6.770;2022-10-19T00:08:56;10.30;99.90
54178;DHT22;40085;53.004;6.770;2022-10-19T00:11:23;10.30;99.90
54178;DHT22;40085;53.004;6.770;2022-10-19T00:13:49;10.30;99.90
54178;DHT22;40085;53.004;6.770;2022-10-19T00:16:16;10.20;99.90
54178;DHT22;40085;53.004;6.770;2022-10-19T00:18:42;10.30;99.90
54178;DHT22;40085;53.004;6.770;2022-10-19T00:21:11;10.40;99.90
54178;DHT22;40085;53.004;6.770;2022-10-19T00:23:37;10.40;99.90
54178;DHT22;40085;53.004;6.770;2022-10-19T00:26:02;10.30;99.90
54178;DHT22;40085;53.004;6.770;2022-10-19T00:28:28;10.30;99.90
54178;DHT22;40085;53.004;6.770;2022-10-19T00:30:55;10.30;99.90
54178;DHT22;40085;53.004;6.770;2022-10-19T00:33:21;10.40;99.90
54178;DHT22;40085;53.004;6.770;2022-10-19T00:35:49;10.40;99.90
54178;DHT22;40085;53.004;6.770;2022-10-19T00:38:16;10.40;99.90
54178;DHT22;40085;53.004;6.770;2022-10-19T00:40:43;10.40;99.90
54178;DHT22;40085;53.004;6.770;2022-10-19T00:43:29;10.40;99.90
54178;DHT22;40085;53.004;6.770;2022-10-19T00:45:55;10.50;99.90
54178;DHT22;40085;53.004;6.770;2022-10-19T00:48:24;10.50;99.90
54178;DHT22;40085;53.004;6.770;2022-10-19T00:50:53;10.40;99.90
54178;DHT22;40085;53.004;6.770;2022-10-19T00:53:20;10.60;99.90
54178;DHT22;40085;53.004;6.770;2022-10-19T00:55:48;10.60;99.90
54178;DHT22;40085;53.004;6.770;2022-10-19T00:58:14;10.50;99.90
54178;DHT22;40085;53.004;6.770;2022-10-19T01:00:39;10.50;99.90
54178;DHT22;40085;53.004;6.770;2022-10-19T01:03:06;10.60;99.90
54178;DHT22;40085;53.004;6.770;2022-10-19T01:05:33;10.50;99.90
54178;DHT22;40085;53.004;6.770;2022-10-19T01:08:00;10.50;99.90
54178;DHT22;40085;53.004;6.770;2022-10-19T01:22:22;10.50;99.90
54178;DHT22;40085;53.004;6.770;2022-10-19T01:39:02;10.60;99.90
54178;DHT22;40085;53.004;6.770;2022-10-19T01:44:13;10.60;99.90
54178;DHT22;40085;53.004;6.770;2022-10-19T01:46:42;10.50;99.90
54178;DHT22;40085;53.004;6.770;2022-10-19T01:49:42;10.60;99.90
54178;DHT22;40085;53.004;6.770;2022-10-19T01:52:13;10.70;99.90
54178;DHT22;40085;53.004;6.770;2022-10-19T01:54:44;10.70;99.90
54178;DHT22;40085;53.004;6.770;2022-10-19T01:57:13;10.70;99.90
54178;DHT22;40085;53.004;6.770;2022-10-19T01:59:42;10.70;99.90
54178;DHT22;40085;53.004;6.770;2022-10-19T02:02:09;10.70;99.90
54178;DHT22;40085;53.004;6.770;2022-10-19T02:04:36;10.70;99.90
54178;DHT22;40085;53.004;6.770;2022-10-19T02:07:03;10.60;99.90
54178;DHT22;40085;53.004;6.770;2022-10-19T02:09:31;10.70;99.90
54178;DHT22;40085;53.004;6.770;2022-10-19T02:12:02;10.70;99.90
54178;DHT22;40085;53.004;6.770;2022-10-19T02:14:45;10.80;99.90
54178;DHT22;40085;53.004;6.770;2022-10-19T02:17:18;10.80;99.90
54178;DHT22;40085;53.004;6.770;2022-10-19T02:19:45;10.80;99.90
54178;DHT22;40085;53.004;6.770;2022-10-19T02:22:11;10.80;99.90
54178;DHT22;40085;53.004;6.770;2022-10-19T02:24:38;10.80;99.90
54178;DHT22;40085;53.004;6.770;2022-10-19T02:27:05;10.80;99.90
54178;DHT22;40085;53.004;6.770;2022-10-19T02:29:33;10.80;99.90
54178;DHT22;40085;53.004;6.770;2022-10-19T02:32:00;10.80;99.90
54178;DHT22;40085;53.004;6.770;2022-10-19T02:34:26;10.80;99.90
54178;DHT22;40085;53.004;6.770;2022-10-19T02:36:53;10.90;99.90
54178;DHT22;40085;53.004;6.770;2022-10-19T02:39:19;10.90;99.90
54178;DHT22;40085;53.004;6.770;2022-10-19T02:41:56;10.80;99.90
54178;DHT22;40085;53.004;6.770;2022-10-19T02:44:39;10.80;99.90
54178;DHT22;40085;53.004;6.770;2022-10-19T02:47:14;10.80;99.90
54178;DHT22;40085;53.004;6.770;2022-10-19T02:49:42;10.80;99.90
54178;DHT22;40085;53.004;6.770;2022-10-19T02:52:11;10.80;99.90
54178;DHT22;40085;53.004;6.770;2022-10-19T02:54:38;10.70;99.90
54178;DHT22;40085;53.004;6.770;2022-10-19T02:57:21;10.70;99.90
54178;DHT22;40085;53.004;6.770;2022-10-19T02:59:47;10.70;99.90
54178;DHT22;40085;53.004;6.770;2022-10-19T03:02:14;10.70;99.90
54178;DHT22;40085;53.004;6.770;2022-10-19T03:04:41;10.70;99.90
54178;DHT22;40085;53.004;6.770;2022-10-19T03:07:14;10.70;99.90
54178;DHT22;40085;53.004;6.770;2022-10-19T03:09:41;10.70;99.90
54178;DHT22;40085;53.004;6.770;2022-10-19T03:12:07;10.60;99.90
54178;DHT22;40085;53.004;6.770;2022-10-19T03:14:33;10.60;99.90
54178;DHT22;40085;53.004;6.770;2022-10-19T03:16:58;10.60;99.90
54178;DHT22;40085;53.004;6.770;2022-10-19T03:19:24;10.60;99.90
54178;DHT22;40085;53.004;6.770;2022-10-19T03:21:50;10.50;99.90
54178;DHT22;40085;53.004;6.770;2022-10-19T03:24:16;10.50;99.90
54178;DHT22;40085;53.004;6.770;2022-10-19T03:26:42;10.50;99.90
54178;DHT22;40085;53.004;6.770;2022-10-19T03:29:07;10.50;99.90
54178;DHT22;40085;53.004;6.770;2022-10-19T03:31:33;10.70;99.90
54178;DHT22;40085;53.004;6.770;2022-10-19T03:33:59;10.40;99.90
54178;DHT22;40085;53.004;6.770;2022-10-19T03:36:30;10.40;99.90
54178;DHT22;40085;53.004;6.770;2022-10-19T03:38:58;10.20;99.90
54178;DHT22;40085;53.004;6.770;2022-10-19T03:41:27;10.20;99.90
54178;DHT22;40085;53.004;6.770;2022-10-19T03:43:53;10.10;99.90
54178;DHT22;40085;53.004;6.770;2022-10-19T03:46:19;10.00;99.90
54178;DHT22;40085;53.004;6.770;2022-10-19T03:48:45;10.00;99.90
54178;DHT22;40085;53.004;6.770;2022-10-19T03:51:17;10.00;99.90
54178;DHT22;40085;53.004;6.770;2022-10-19T03:53:44;10.00;99.90
54178;DHT22;40085;53.004;6.770;2022-10-19T03:56:12;9.90;99.90
54178;DHT22;40085;53.004;6.770;2022-10-19T03:58:40;10.30;99.90
54178;DHT22;40085;53.004;6.770;2022-10-19T04:01:08;10.30;99.90
54178;DHT22;40085;53.004;6.770;2022-10-19T04:03:35;9.90;99.90
54178;DHT22;40085;53.004;6.770;2022-10-19T04:06:02;9.90;99.90
54178;DHT22;40085;53.004;6.770;2022-10-19T04:08:28;9.90;99.90
54178;DHT22;40085;53.004;6.770;2022-10-19T04:11:02;10.00;99.90
54178;DHT22;40085;53.004;6.770;2022-10-19T04:13:28;9.90;99.90
54178;DHT22;40085;53.004;6.770;2022-10-19T04:15:54;9.90;99.90
54178;DHT22;40085;53.004;6.770;2022-10-19T04:18:20;9.90;99.90
54178;DHT22;40085;53.004;6.770;2022-10-19T04:20:46;9.90;99.90
54178;DHT22;40085;53.004;6.770;2022-10-19T04:23:11;9.90;99.90
54178;DHT22;40085;53.004;6.770;2022-10-19T04:28:05;9.90;99.90
54178;DHT22;40085;53.004;6.770;2022-10-19T04:30:31;10.10;99.90
54178;DHT22;40085;53.004;6.770;2022-10-19T04:32:56;9.90;99.90
54178;DHT22;40085;53.004;6.770;2022-10-19T04:35:22;9.90;99.90
54178;DHT22;40085;53.004;6.770;2022-10-19T04:37:48;9.90;99.90
54178;DHT22;40085;53.004;6.770;2022-10-19T04:40:13;9.90;99.90
54178;DHT22;40085;53.004;6.770;2022-10-19T04:42:39;9.90;99.90
54178;DHT22;40085;53.004;6.770;2022-10-19T04:45:05;9.90;99.90
54178;DHT22;40085;53.004;6.770;2022-10-19T04:47:31;9.90;99.90
54178;DHT22;40085;53.004;6.770;2022-10-19T04:49:57;9.90;99.90
54178;DHT22;40085;53.004;6.770;2022-10-19T04:52:22;9.90;99.90
54178;DHT22;40085;53.004;6.770;2022-10-19T04:54:48;9.90;99.90
54178;DHT22;40085;53.004;6.770;2022-10-19T04:57:14;9.90;99.90
54178;DHT22;40085;53.004;6.770;2022-10-19T04:59:39;9.90;99.90
54178;DHT22;40085;53.004;6.770;2022-10-19T05:02:05;9.80;99.90
54178;DHT22;40085;53.004;6.770;2022-10-19T05:04:31;9.90;99.90
54178;DHT22;40085;53.004;6.770;2022-10-19T05:06:56;9.80;99.90
54178;DHT22;40085;53.004;6.770;2022-10-19T05:09:22;9.80;99.90
54178;DHT22;40085;53.004;6.770;2022-10-19T05:11:48;9.80;99.90
54178;DHT22;40085;53.004;6.770;2022-10-19T05:14:15;9.80;99.90
54178;DHT22;40085;53.004;6.770;2022-10-19T05:16:41;9.80;99.90
54178;DHT22;40085;53.004;6.770;2022-10-19T05:19:09;9.80;99.90
54178;DHT22;40085;53.004;6.770;2022-10-19T05:21:36;9.70;99.90
54178;DHT22;40085;53.004;6.770;2022-10-19T05:24:02;9.70;99.90
54178;DHT22;40085;53.004;6.770;2022-10-19T05:26:28;9.70;99.90
54178;DHT22;40085;53.004;6.770;2022-10-19T05:28:56;9.70;99.90
54178;DHT22;40085;53.004;6.770;2022-10-19T05:31:26;9.80;99.90
54178;DHT22;40085;53.004;6.770;2022-10-19T05:33:52;9.80;99.90
54178;DHT22;40085;53.004;6.770;2022-10-19T05:36:32;9.80;99.90
54178;DHT22;40085;53.004;6.770;2022-10-19T05:39:07;9.80;99.90
54178;DHT22;40085;53.004;6.770;2022-10-19T05:41:33;10.20;99.90
54178;DHT22;40085;53.004;6.770;2022-10-19T05:44:00;9.70;99.90
54178;DHT22;40085;53.004;6.770;2022-10-19T05:46:28;9.80;99.90
54178;DHT22;40085;53.004;6.770;2022-10-19T05:48:55;9.80;99.90
54178;DHT22;40085;53.004;6.770;2022-10-19T05:51:21;9.80;99.90
54178;DHT22;40085;53.004;6.770;2022-10-19T05:53:48;9.80;99.90
54178;DHT22;40085;53.004;6.770;2022-10-19T05:56:17;10.00;99.90
54178;DHT22;40085;53.004;6.770;2022-10-19T05:58:43;10.20;99.90
54178;DHT22;40085;53.004;6.770;2022-10-19T06:01:09;9.90;99.90
54178;DHT22;40085;53.004;6.770;2022-10-19T06:03:35;9.80;99.90
54178;DHT22;40085;53.004;6.770;2022-10-19T06:06:06;9.90;99.90
54178;DHT22;40085;53.004;6.770;2022-10-19T06:08:32;9.90;99.90
54178;DHT22;40085;53.004;6.770;2022-10-19T06:13:30;9.90;99.90
54178;DHT22;40085;53.004;6.770;2022-10-19T06:15:56;9.90;99.90
54178;DHT22;40085;53.004;6.770;2022-10-19T06:18:21;9.80;99.90
54178;DHT22;40085;53.004;6.770;2022-10-19T06:20:51;9.90;99.90
54178;DHT22;40085;53.004;6.770;2022-10-19T06:23:17;9.90;99.90
54178;DHT22;40085;53.004;6.770;2022-10-19T06:25:42;10.00;99.90
54178;DHT22;40085;53.004;6.770;2022-10-19T06:28:08;10.00;99.90
54178;DHT22;40085;53.004;6.770;2022-10-19T06:33:03;10.00;99.90
54178;DHT22;40085;53.004;6.770;2022-10-19T06:35:29;10.00;99.90
54178;DHT22;40085;53.004;6.770;2022-10-19T06:37:55;10.10;99.90
54178;DHT22;40085;53.004;6.770;2022-10-19T06:40:22;10.10;99.90
54178;DHT22;40085;53.004;6.770;2022-10-19T06:42:48;10.20;99.90
54178;DHT22;40085;53.004;6.770;2022-10-19T06:45:14;10.70;99.90
54178;DHT22;40085;53.004;6.770;2022-10-19T06:47:39;10.20;99.90
54178;DHT22;40085;53.004;6.770;2022-10-19T06:50:06;10.30;99.90
54178;DHT22;40085;53.004;6.770;2022-10-19T06:52:32;10.30;99.90
54178;DHT22;40085;53.004;6.770;2022-10-19T06:54:58;10.40;99.90
54178;DHT22;40085;53.004;6.770;2022-10-19T06:57:24;10.40;99.90
54178;DHT22;40085;53.004;6.770;2022-10-19T06:59:50;10.40;99.90
54178;DHT22;40085;53.004;6.770;2022-10-19T07:02:16;10.40;99.90
54178;DHT22;40085;53.004;6.770;2022-10-19T07:04:45;10.40;99.90
54178;DHT22;40085;53.004;6.770;2022-10-19T07:07:11;10.50;99.90
54178;DHT22;40085;53.004;6.770;2022-10-19T07:09:36;10.50;99.90
54178;DHT22;40085;53.004;6.770;2022-10-19T07:12:02;10.60;99.90
54178;DHT22;40085;53.004;6.770;2022-10-19T07:14:28;10.60;99.90
54178;DHT22;40085;53.004;6.770;2022-10-19T07:16:54;10.70;99.90
54178;DHT22;40085;53.004;6.770;2022-10-19T07:19:21;10.70;99.90
54178;DHT22;40085;53.004;6.770;2022-10-19T07:21:50;10.70;99.90
54178;DHT22;40085;53.004;6.770;2022-10-19T07:24:16;10.80;99.90
54178;DHT22;40085;53.004;6.770;2022-10-19T07:26:42;10.80;99.90
54178;DHT22;40085;53.004;6.770;2022-10-19T07:29:08;10.90;99.90
54178;DHT22;40085;53.004;6.770;2022-10-19T07:31:34;10.90;99.90
54178;DHT22;40085;53.004;6.770;2022-10-19T07:34:01;11.00;99.90
54178;DHT22;40085;53.004;6.770;2022-10-19T07:36:30;11.00;99.90
54178;DHT22;40085;53.004;6.770;2022-10-19T07:38:56;11.10;99.90
54178;DHT22;40085;53.004;6.770;2022-10-19T07:41:23;11.10;99.90
54178;DHT22;40085;53.004;6.770;2022-10-19T07:43:50;11.20;99.90
54178;DHT22;40085;53.004;6.770;2022-10-19T07:46:22;11.20;99.90
54178;DHT22;40085;53.004;6.770;2022-10-19T07:48:48;11.30;99.90
54178;DHT22;40085;53.004;6.770;2022-10-19T07:51:15;11.30;99.90
54178;DHT22;40085;53.004;6.770;2022-10-19T07:53:41;11.40;99.90
54178;DHT22;40085;53.004;6.770;2022-10-19T07:56:19;11.50;99.90
54178;DHT22;40085;53.004;6.770;2022-10-19T07:58:45;11.50;99.90
54178;DHT22;40085;53.004;6.770;2022-10-19T08:01:14;11.50;99.90
54178;DHT22;40085;53.004;6.770;2022-10-19T08:03:40;11.50;99.90
54178;DHT22;40085;53.004;6.770;2022-10-19T08:06:08;11.50;99.90
54178;DHT22;40085;53.004;6.770;2022-10-19T08:08:35;11.50;99.90
54178;DHT22;40085;53.004;6.770;2022-10-19T08:11:25;11.60;99.90
54178;DHT22;40085;53.004;6.770;2022-10-19T08:13:52;11.60;99.90
54178;DHT22;40085;53.004;6.770;2022-10-19T08:16:31;11.70;99.90
54178;DHT22;40085;53.004;6.770;2022-10-19T08:19:00;12.00;99.90
54178;DHT22;40085;53.004;6.770;2022-10-19T08:21:27;11.80;99.90
54178;DHT22;40085;53.004;6.770;2022-10-19T08:23:53;11.90;99.90
54178;DHT22;40085;53.004;6.770;2022-10-19T08:26:19;11.90;99.90
54178;DHT22;40085;53.004;6.770;2022-10-19T08:28:45;12.00;99.90
54178;DHT22;40085;53.004;6.770;2022-10-19T08:31:12;12.10;99.90
54178;DHT22;40085;53.004;6.770;2022-10-19T08:33:39;12.20;99.90
54178;DHT22;40085;53.004;6.770;2022-10-19T08:38:33;12.20;99.90
54178;DHT22;40085;53.004;6.770;2022-10-19T08:49:20;12.30;99.90
54178;DHT22;40085;53.004;6.770;2022-10-19T08:51:52;12.40;99.90
54178;DHT22;40085;53.004;6.770;2022-10-19T08:54:19;12.50;99.90
54178;DHT22;40085;53.004;6.770;2022-10-19T08:57:07;12.50;99.90
54178;DHT22;40085;53.004;6.770;2022-10-19T08:59:48;12.60;99.90
54178;DHT22;40085;53.004;6.770;2022-10-19T09:02:38;12.60;99.90
54178;DHT22;40085;53.004;6.770;2022-10-19T09:05:27;12.70;99.90
54178;DHT22;40085;53.004;6.770;2022-10-19T09:07:56;12.70;99.90
54178;DHT22;40085;53.004;6.770;2022-10-19T09:10:31;12.70;99.90
54178;DHT22;40085;53.004;6.770;2022-10-19T09:12:59;12.70;99.90
54178;DHT22;40085;53.004;6.770;2022-10-19T09:15:37;12.80;99.90
54178;DHT22;40085;53.004;6.770;2022-10-19T09:18:25;12.90;99.90
54178;DHT22;40085;53.004;6.770;2022-10-19T09:20:59;12.80;99.40
54178;DHT22;40085;53.004;6.770;2022-10-19T09:25:52;12.90;99.90
54178;DHT22;40085;53.004;6.770;2022-10-19T09:31:06;13.00;99.90
54178;DHT22;40085;53.004;6.770;2022-10-19T09:33:38;13.00;99.90
54178;DHT22;40085;53.004;6.770;2022-10-19T09:36:05;13.10;99.90
54178;DHT22;40085;53.004;6.770;2022-10-19T09:38:32;13.00;99.00
54178;DHT22;40085;53.004;6.770;2022-10-19T09:41:15;13.00;99.90
54178;DHT22;40085;53.004;6.770;2022-10-19T09:43:46;13.00;97.40
54178;DHT22;40085;53.004;6.770;2022-10-19T09:46:32;12.90;98.00
54178;DHT22;40085;53.004;6.770;2022-10-19T09:48:59;13.00;99.40
54178;DHT22;40085;53.004;6.770;2022-10-19T09:51:59;13.00;99.20
54178;DHT22;40085;53.004;6.770;2022-10-19T09:54:41;13.00;96.80
54178;DHT22;40085;53.004;6.770;2022-10-19T09:57:19;13.00;97.50
54178;DHT22;40085;53.004;6.770;2022-10-19T09:59:50;13.00;97.50
54178;DHT22;40085;53.004;6.770;2022-10-19T10:02:19;13.00;97.60
54178;DHT22;40085;53.004;6.770;2022-10-19T10:05:05;13.10;97.70
54178;DHT22;40085;53.004;6.770;2022-10-19T10:07:36;13.10;97.50
54178;DHT22;40085;53.004;6.770;2022-10-19T10:10:22;13.10;95.80
54178;DHT22;40085;53.004;6.770;2022-10-19T10:12:49;13.20;94.20
54178;DHT22;40085;53.004;6.770;2022-10-19T10:15:20;13.20;95.60
54178;DHT22;40085;53.004;6.770;2022-10-19T10:17:48;13.20;94.50
54178;DHT22;40085;53.004;6.770;2022-10-19T10:22:55;13.30;95.90
54178;DHT22;40085;53.004;6.770;2022-10-19T10:25:28;13.40;95.70
54178;DHT22;40085;53.004;6.770;2022-10-19T10:28:14;13.40;94.60
54178;DHT22;40085;53.004;6.770;2022-10-19T10:30:44;13.50;95.00
54178;DHT22;40085;53.004;6.770;2022-10-19T10:33:15;13.60;95.90
54178;DHT22;40085;53.004;6.770;2022-10-19T10:35:47;13.60;95.70
54178;DHT22;40085;53.004;6.770;2022-10-19T10:38:24;13.70;97.10
54178;DHT22;40085;53.004;6.770;2022-10-19T10:40:56;13.70;96.00
54178;DHT22;40085;53.004;6.770;2022-10-19T10:43:32;13.70;95.90
54178;DHT22;40085;53.004;6.770;2022-10-19T10:46:05;13.70;94.20
54178;DHT22;40085;53.004;6.770;2022-10-19T10:48:36;13.50;86.60
54178;DHT22;40085;53.004;6.770;2022-10-19T10:51:20;13.50;91.60
54178;DHT22;40085;53.004;6.770;2022-10-19T10:53:49;13.50;94.60
54178;DHT22;40085;53.004;6.770;2022-10-19T10:59:10;13.60;94.60
54178;DHT22;40085;53.004;6.770;2022-10-19T11:01:43;13.70;94.00
54178;DHT22;40085;53.004;6.770;2022-10-19T11:04:21;13.70;94.40
54178;DHT22;40085;53.004;6.770;2022-10-19T11:06:58;13.60;87.50
54178;DHT22;40085;53.004;6.770;2022-10-19T11:09:32;13.60;88.20
54178;DHT22;40085;53.004;6.770;2022-10-19T11:12:03;13.70;94.20
54178;DHT22;40085;53.004;6.770;2022-10-19T11:17:02;13.70;92.70
54178;DHT22;40085;53.004;6.770;2022-10-19T11:19:36;13.60;91.80
54178;DHT22;40085;53.004;6.770;2022-10-19T11:22:38;13.60;87.40
54178;DHT22;40085;53.004;6.770;2022-10-19T11:28:42;13.60;93.00
54178;DHT22;40085;53.004;6.770;2022-10-19T11:31:19;13.60;92.10
54178;DHT22;40085;53.004;6.770;2022-10-19T11:42:43;13.90;93.80
54178;DHT22;40085;53.004;6.770;2022-10-19T11:51:24;13.80;90.70
54178;DHT22;40085;53.004;6.770;2022-10-19T11:57:15;14.10;92.40
54178;DHT22;40085;53.004;6.770;2022-10-19T12:00:21;14.30;92.40
54178;DHT22;40085;53.004;6.770;2022-10-19T12:11:21;15.00;69.20
54178;DHT22;40085;53.004;6.770;2022-10-19T12:14:12;15.10;71.30
54178;DHT22;40085;53.004;6.770;2022-10-19T12:16:46;15.20;74.50
54178;DHT22;40085;53.004;6.770;2022-10-19T12:19:21;15.10;63.40
54178;DHT22;40085;53.004;6.770;2022-10-19T12:21:50;15.20;80.70
54178;DHT22;40085;53.004;6.770;2022-10-19T12:24:22;15.00;78.80
54178;DHT22;40085;53.004;6.770;2022-10-19T12:26:49;14.80;74.00
54178;DHT22;40085;53.004;6.770;2022-10-19T12:29:20;14.80;79.80
54178;DHT22;40085;53.004;6.770;2022-10-19T12:31:48;14.80;84.70
54178;DHT22;40085;53.004;6.770;2022-10-19T12:37:43;14.70;77.60
54178;DHT22;40085;53.004;6.770;2022-10-19T12:43:07;14.50;87.70
54178;DHT22;40085;53.004;6.770;2022-10-19T12:45:42;14.50;81.30
54178;DHT22;40085;53.004;6.770;2022-10-19T12:48:16;14.50;79.60
54178;DHT22;40085;53.004;6.770;2022-10-19T12:53:35;14.60;83.60
54178;DHT22;40085;53.004;6.770;2022-10-19T13:01:07;14.60;90.50
54178;DHT22;40085;53.004;6.770;2022-10-19T13:03:36;14.70;90.20
54178;DHT22;40085;53.004;6.770;2022-10-19T13:06:15;14.70;90.20
54178;DHT22;40085;53.004;6.770;2022-10-19T13:11:19;14.80;88.50
54178;DHT22;40085;53.004;6.770;2022-10-19T13:14:06;14.80;82.40
54178;DHT22;40085;53.004;6.770;2022-10-19T13:17:01;14.70;84.10
54178;DHT22;40085;53.004;6.770;2022-10-19T13:19:27;14.60;84.40
54178;DHT22;40085;53.004;6.770;2022-10-19T13:35:36;14.00;87.60
54178;DHT22;40085;53.004;6.770;2022-10-19T13:38:18;13.90;88.00
54178;DHT22;40085;53.004;6.770;2022-10-19T13:43:49;13.70;87.70
54178;DHT22;40085;53.004;6.770;2022-10-19T14:08:02;13.90;91.60
54178;DHT22;40085;53.004;6.770;2022-10-19T14:10:33;13.90;90.20
54178;DHT22;40085;53.004;6.770;2022-10-19T14:12:59;13.90;91.10
54178;DHT22;40085;53.004;6.770;2022-10-19T14:15:34;13.80;90.90
54178;DHT22;40085;53.004;6.770;2022-10-19T14:18:00;13.70;90.50
54178;DHT22;40085;53.004;6.770;2022-10-19T14:20:32;13.70;89.50
54178;DHT22;40085;53.004;6.770;2022-10-19T14:23:17;13.60;91.50
54178;DHT22;40085;53.004;6.770;2022-10-19T14:25:52;13.50;89.90
54178;DHT22;40085;53.004;6.770;2022-10-19T14:28:20;13.40;90.80
54178;DHT22;40085;53.004;6.770;2022-10-19T14:31:00;13.40;90.70
54178;DHT22;40085;53.004;6.770;2022-10-19T14:33:32;13.30;90.10
54178;DHT22;40085;53.004;6.770;2022-10-19T14:35:59;13.30;92.40
54178;DHT22;40085;53.004;6.770;2022-10-19T14:38:31;13.30;92.10
54178;DHT22;40085;53.004;6.770;2022-10-19T14:40:57;13.20;91.40
54178;DHT22;40085;53.004;6.770;2022-10-19T14:43:25;13.20;92.20
54178;DHT22;40085;53.004;6.770;2022-10-19T14:48:33;13.10;92.90
54178;DHT22;40085;53.004;6.770;2022-10-19T14:50:59;13.10;92.60
54178;DHT22;40085;53.004;6.770;2022-10-19T14:53:49;13.10;92.10
54178;DHT22;40085;53.004;6.770;2022-10-19T14:56:24;13.00;92.70
54178;DHT22;40085;53.004;6.770;2022-10-19T14:59:04;12.90;92.30
54178;DHT22;40085;53.004;6.770;2022-10-19T15:01:32;12.90;92.20
54178;DHT22;40085;53.004;6.770;2022-10-19T15:03:59;12.80;93.00
54178;DHT22;40085;53.004;6.770;2022-10-19T15:06:27;12.80;92.60
54178;DHT22;40085;53.004;6.770;2022-10-19T15:09:03;12.70;92.00
54178;DHT22;40085;53.004;6.770;2022-10-19T15:11:35;12.70;93.40
54178;DHT22;40085;53.004;6.770;2022-10-19T15:14:08;12.70;94.10
54178;DHT22;40085;53.004;6.770;2022-10-19T15:16:52;12.60;94.20
54178;DHT22;40085;53.004;6.770;2022-10-19T15:19:25;12.60;93.90
54178;DHT22;40085;53.004;6.770;2022-10-19T15:27:37;12.40;95.10
54178;DHT22;40085;53.004;6.770;2022-10-19T15:30:23;12.40;95.30
54178;DHT22;40085;53.004;6.770;2022-10-19T15:35:30;12.20;95.90
54178;DHT22;40085;53.004;6.770;2022-10-19T15:38:02;12.20;96.30
54178;DHT22;40085;53.004;6.770;2022-10-19T15:40:34;12.10;96.60
54178;DHT22;40085;53.004;6.770;2022-10-19T15:43:00;12.10;97.10
54178;DHT22;40085;53.004;6.770;2022-10-19T15:45:33;12.00;96.90
54178;DHT22;40085;53.004;6.770;2022-10-19T15:50:47;12.00;97.20
54178;DHT22;40085;53.004;6.770;2022-10-19T15:53:14;11.90;97.10
54178;DHT22;40085;53.004;6.770;2022-10-19T15:55:39;11.90;97.40
54178;DHT22;40085;53.004;6.770;2022-10-19T15:58:05;11.90;97.50
54178;DHT22;40085;53.004;6.770;2022-10-19T16:00:31;11.80;97.90
54178;DHT22;40085;53.004;6.770;2022-10-19T16:02:57;11.70;97.90
54178;DHT22;40085;53.004;6.770;2022-10-19T16:05:23;11.70;98.40
54178;DHT22;40085;53.004;6.770;2022-10-19T16:07:49;11.60;98.50
54178;DHT22;40085;53.004;6.770;2022-10-19T16:10:23;11.50;98.10
54178;DHT22;40085;53.004;6.770;2022-10-19T16:12:50;11.50;98.60
54178;DHT22;40085;53.004;6.770;2022-10-19T16:15:18;11.40;99.20
54178;DHT22;40085;53.004;6.770;2022-10-19T16:17:49;11.30;99.30
54178;DHT22;40085;53.004;6.770;2022-10-19T16:20:16;11.30;99.30
54178;DHT22;40085;53.004;6.770;2022-10-19T16:22:43;11.20;99.60
54178;DHT22;40085;53.004;6.770;2022-10-19T16:25:10;11.10;99.70
54178;DHT22;40085;53.004;6.770;2022-10-19T16:27:35;11.10;99.90
54178;DHT22;40085;53.004;6.770;2022-10-19T16:30:02;11.00;99.90
54178;DHT22;40085;53.004;6.770;2022-10-19T16:32:28;10.90;99.90
54178;DHT22;40085;53.004;6.770;2022-10-19T16:34:54;10.90;99.90
54178;DHT22;40085;53.004;6.770;2022-10-19T16:37:19;10.80;99.90
54178;DHT22;40085;53.004;6.770;2022-10-19T16:39:45;10.70;99.90
54178;DHT22;40085;53.004;6.770;2022-10-19T16:42:11;10.90;99.90
54178;DHT22;40085;53.004;6.770;2022-10-19T16:44:36;10.60;99.90
54178;DHT22;40085;53.004;6.770;2022-10-19T16:47:02;10.80;99.90
54178;DHT22;40085;53.004;6.770;2022-10-19T16:49:28;10.50;99.90
54178;DHT22;40085;53.004;6.770;2022-10-19T16:51:54;10.50;99.90
54178;DHT22;40085;53.004;6.770;2022-10-19T16:54:20;10.40;99.90
54178;DHT22;40085;53.004;6.770;2022-10-19T16:56:51;10.40;99.90
54178;DHT22;40085;53.004;6.770;2022-10-19T16:59:20;10.30;99.90
54178;DHT22;40085;53.004;6.770;2022-10-19T17:01:46;10.60;99.90
54178;DHT22;40085;53.004;6.770;2022-10-19T17:04:13;10.50;99.90
54178;DHT22;40085;53.004;6.770;2022-10-19T17:06:40;10.20;99.90
54178;DHT22;40085;53.004;6.770;2022-10-19T17:09:06;10.20;99.90
54178;DHT22;40085;53.004;6.770;2022-10-19T17:11:34;10.30;99.90
54178;DHT22;40085;53.004;6.770;2022-10-19T17:14:11;10.10;99.90
54178;DHT22;40085;53.004;6.770;2022-10-19T17:16:37;10.10;99.90
54178;DHT22;40085;53.004;6.770;2022-10-19T17:19:04;10.10;99.90
54178;DHT22;40085;53.004;6.770;2022-10-19T17:21:32;10.10;99.90
54178;DHT22;40085;53.004;6.770;2022-10-19T17:24:00;10.10;99.90
54178;DHT22;40085;53.004;6.770;2022-10-19T17:26:31;10.00;99.90
54178;DHT22;40085;53.004;6.770;2022-10-19T17:28:58;10.00;99.90
54178;DHT22;40085;53.004;6.770;2022-10-19T17:31:24;10.00;99.90
54178;DHT22;40085;53.004;6.770;2022-10-19T17:33:50;10.00;99.90
54178;DHT22;40085;53.004;6.770;2022-10-19T17:36:21;10.00;99.90
54178;DHT22;40085;53.004;6.770;2022-10-19T17:38:47;10.00;99.90
54178;DHT22;40085;53.004;6.770;2022-10-19T17:41:16;10.00;99.90
54178;DHT22;40085;53.004;6.770;2022-10-19T17:43:44;9.90;99.90
54178;DHT22;40085;53.004;6.770;2022-10-19T17:46:12;9.90;99.90
54178;DHT22;40085;53.004;6.770;2022-10-19T17:48:40;9.90;99.90
54178;DHT22;40085;53.004;6.770;2022-10-19T17:51:20;9.90;99.90
54178;DHT22;40085;53.004;6.770;2022-10-19T17:53:48;9.80;99.90
54178;DHT22;40085;53.004;6.770;2022-10-19T17:56:17;9.80;99.90
54178;DHT22;40085;53.004;6.770;2022-10-19T17:58:44;9.80;99.90
54178;DHT22;40085;53.004;6.770;2022-10-19T18:01:10;9.80;99.90
54178;DHT22;40085;53.004;6.770;2022-10-19T18:03:37;9.80;99.90
54178;DHT22;40085;53.004;6.770;2022-10-19T18:08:32;9.70;99.90
54178;DHT22;40085;53.004;6.770;2022-10-19T18:11:03;10.00;99.90
54178;DHT22;40085;53.004;6.770;2022-10-19T18:13:30;9.70;99.90
54178;DHT22;40085;53.004;6.770;2022-10-19T18:16:00;9.70;99.90
54178;DHT22;40085;53.004;6.770;2022-10-19T18:18:28;9.60;99.90
54178;DHT22;40085;53.004;6.770;2022-10-19T18:23:20;9.60;99.90
54178;DHT22;40085;53.004;6.770;2022-10-19T18:25:46;9.50;99.90
54178;DHT22;40085;53.004;6.770;2022-10-19T18:28:14;9.50;99.90
54178;DHT22;40085;53.004;6.770;2022-10-19T18:30:40;9.50;99.90
54178;DHT22;40085;53.004;6.770;2022-10-19T18:33:07;9.10;99.90
54178;DHT22;40085;53.004;6.770;2022-10-19T18:35:37;9.50;99.90